• Join FlightAware (Why Join?)
  • Login
  • US Flag 
08:54AM EST


 

Airport Tracker/Info


-or-


 

Live Flight TrackerFlight Track Log ✈ UPS1337 ✈ 29-Mar-2014 ✈ KRDU - KSDF

Flight Track Log - Related Links

Times and Time Zones

All times are in EDT time to prevent confusion due to time zone crossing. See the UPS1337 flight status page for this flight to view local times or setup timezone preferences in your user account.

Time Position Orientation Groundspeed Altitude Reporting Facility
EDT Latitude Longitude Course Direction KTS MPH feet Rate Location/Type
11:58PM 35.8708 -78.8089 227° Southwest 170 196 1,500  Level Washington Center
11:58PM 35.8536 -78.8314 236° Southwest 172 198 2,600 2,400 Climbing Washington Center
11:58PM 35.8514 -78.8286 135° Southeast 171 197 2,700 2,640 Climbing Washington Center
11:59PM 35.8103 -78.8833 227° Southwest 194 223 5,300 3,360 Climbing Washington Center
12:00AM 35.8100 -78.9728 270° West 231 266 9,200 2,940 Climbing Washington Center
12:01AM 35.8194 -79.0758 276° West 265 305 11,100 2,340 Climbing Washington Center
12:02AM 35.8306 -79.1992 276° West 335 386 13,900 2,700 Climbing Washington Center
12:04AM 35.8239 -79.4364 268° West 396 456 18,500 2,640 Climbing Atlanta Center
12:05AM 35.8103 -79.5756 263° West 409 471 21,100 2,340 Climbing Atlanta Center
12:06AM 35.7858 -79.7100 257° West 409 471 23,200 2,100 Climbing Atlanta Center
12:07AM 35.7633 -79.8442 258° West 421 484 25,300 1,920 Climbing Atlanta Center
12:08AM 35.7725 -79.9872 275° West 428 493 27,100 2,040 Climbing Atlanta Center
12:09AM 35.8311 -80.1275 297° West 433 498 29,400 2,220 Climbing Atlanta Center
12:10AM 35.8856 -80.2661 296° West 438 504 31,600 1,260 Climbing Atlanta Center
12:11AM 35.9464 -80.4144 297° West 448 516 32,000 180 Climbing Atlanta Center
12:12AM 36.0003 -80.5456 297° West 440 506 32,000  Level Atlanta Center
12:13AM 36.0494 -80.6642 297° West 440 506 32,000  Level Atlanta Center
12:14AM 36.1031 -80.8006 296° West 435 501 32,000  Level Atlanta Center
12:15AM 36.1567 -80.9297 297° West 435 501 32,000  Level Atlanta Center
12:16AM 36.2078 -81.0642 295° West 435 501 32,000  Level Atlanta Center
12:18AM 36.2931 -81.2797 296° West 426 490 32,000  Level Indianapolis Center
12:19AM 36.3522 -81.4314 296° West 424 488 32,000  Level Indianapolis Center
12:20AM 36.4022 -81.5622 295° West 422 486 32,000  Level Indianapolis Center
12:21AM 36.4544 -81.6947 296° West 422 486 32,000  Level Indianapolis Center
12:22AM 36.5056 -81.8272 296° West 423 487 32,000  Level Indianapolis Center
12:23AM 36.5567 -81.9586 296° West 423 487 32,000  Level Indianapolis Center
12:24AM 36.6078 -82.0917 296° West 423 487 32,000  Level Indianapolis Center
12:25AM 36.6594 -82.2256 296° West 425 489 32,000  Level Indianapolis Center
12:26AM 36.7100 -82.3608 295° West 427 491 32,000  Level Indianapolis Center
12:27AM 36.7619 -82.4975 295° West 430 495 32,000  Level Indianapolis Center
12:28AM 36.8125 -82.6311 295° West 430 495 32,000  Level Indianapolis Center
12:29AM 36.8619 -82.7633 295° West 424 488 32,000  Level Indianapolis Center
12:30AM 36.9067 -82.8839 295° West 424 488 32,000  Level Indianapolis Center
12:31AM 36.9672 -83.0453 295° West 426 490 32,000  Level Indianapolis Center
12:32AM 37.0164 -83.1778 295° West 426 490 32,000  Level Indianapolis Center
12:33AM 37.0658 -83.3122 295° West 425 489 32,000  Level Indianapolis Center
12:34AM 37.1156 -83.4464 295° West 425 489 32,000  Level Indianapolis Center
12:35AM 37.1642 -83.5806 294° West 425 489 32,000  Level Indianapolis Center
12:36AM 37.2139 -83.7156 295° West 425 489 32,000 -2,040 Level Indianapolis Center
12:42AM 37.4847 -84.4693 294° West 424 488 18,200 -2,340 Descending FlightAware ADS-B
12:43AM 37.5577 -84.6752 294° West 408 470 15,100 -1,800 Descending FlightAware ADS-B
12:46AM 37.7495 -85.0839 311° West 323 372 9,900 -1,380 Descending FlightAware ADS-B
12:47AM 37.7792 -85.1766 289° West 280 322 9,200 -1,200 Descending FlightAware ADS-B
12:48AM 37.8044 -85.2704 288° West 275 316 7,600 -1,620 Descending FlightAware ADS-B
12:49AM 37.8291 -85.3631 289° West 273 314 6,000 -1,620 Descending FlightAware ADS-B
12:50AM 37.8528 -85.4532 288° West 275 316 4,400 -1,560 Descending FlightAware ADS-B
12:51AM 37.8782 -85.5441 304° West 275 316 3,000 -780 Descending FlightAware ADS-B
12:52AM 37.9317 -85.6123 316° Northwest 266 306 2,900 -60 Descending FlightAware ADS-B
12:53AM 37.9858 -85.6624 342° North 234 269 2,900  Level FlightAware ADS-B
12:54AM 38.0453 -85.6824 346° North 204 235 2,900 -540 Level FlightAware ADS-B
12:55AM 38.0950 -85.7002 345° North 159 183 1,900 -960 Descending FlightAware ADS-B
12:56AM 38.1000 -85.7000 208° Southwest 166 191 1,800 -840 Descending Louisville TRACON
12:56AM 38.1339 -85.7129 346° North 129 148 1,100 -900 Descending FlightAware ADS-B
12:58AM 38.1741 -85.7365 211° Southwest  Level Estimated
01:01AM 38.1667 -85.7333 208° Southwest  Level FlightAware Approximate
01:05AM 38.1741 -85.7365 208° Southwest  Level Estimated